Bookmark and Share
Track history (hours):
 

Satauria

More information available from US FCC via Universal Licensing System and Coast Guard Vessel Documentation Center.

Last reported at 2013-Dec-05 17:31 UTC. Time now 2014-Apr-21 07:26 UTC.
Position N 26°27' W 080°00'.
Warning: this ship's position is months out of date.

Length 17 m.

Type: Pleasure craft. MMSI: 367169660.

NotesDate/timePositionNaut miles runAvg speedWind from/ knotsBaromVisibWave heightAir tempDewpointWater temp
2013-Dec-05 17:31N 26°27' W 080°00'10 9.5
2013-Dec-05 16:31N 26°18' W 080°02'10 9.4
2013-Dec-05 15:30N 26°09' W 080°05'2 2.4
2013-Dec-05 14:27N 26°07' W 080°06'0 0.0
2013-Dec-05 13:27N 26°07' W 080°06'0 0.0
2013-Dec-05 12:27N 26°07' W 080°06'0 0.0
2013-Dec-05 11:27N 26°07' W 080°06'0 0.0
2013-Dec-05 10:15N 26°07' W 080°06'0 0.0
2013-Dec-05 09:33N 26°07' W 080°06'0 0.0
2013-Dec-05 08:33N 26°07' W 080°06'0 0.0
2013-Dec-05 07:33N 26°07' W 080°06'0 0.0
2013-Dec-05 06:33N 26°07' W 080°06'0 0.0
2013-Dec-05 05:33N 26°07' W 080°06'0 0.0
2013-Dec-05 04:33N 26°07' W 080°06'0 0.0
2013-Dec-05 03:24N 26°07' W 080°06'0 0.0
2013-Dec-05 02:27N 26°07' W 080°06'0 0.0
2013-Dec-05 01:24N 26°07' W 080°06'0 0.0
2013-Dec-05 00:27N 26°07' W 080°06'0 0.0
2013-Dec-04 23:27N 26°07' W 080°06'0 0.0
2013-Dec-04 22:30N 26°07' W 080°06'0 0.0
2013-Dec-04 21:33N 26°07' W 080°06'0 0.0
2013-Dec-04 20:33N 26°07' W 080°06'0 0.0
2013-Dec-04 19:33N 26°07' W 080°06'0 0.0
2013-Dec-04 18:33N 26°07' W 080°06'0 0.0
2013-Dec-04 17:33N 26°07' W 080°06'0 0.0
2013-Dec-04 16:33N 26°07' W 080°06'0 0.0
2013-Dec-04 15:24N 26°07' W 080°06'0 0.0
2013-Dec-04 14:27N 26°07' W 080°06'0 0.0
2013-Dec-04 13:27N 26°07' W 080°06'0 0.0
2013-Dec-04 12:27N 26°07' W 080°06'0 0.0
2013-Dec-04 11:30N 26°07' W 080°06'0 0.0
2013-Dec-04 10:30N 26°07' W 080°06'0 0.0
2013-Dec-04 09:27N 26°07' W 080°06'0 0.0
2013-Dec-04 08:33N 26°07' W 080°06'0 0.0
2013-Dec-04 07:33N 26°07' W 080°06'0 0.0
2013-Dec-04 06:33N 26°07' W 080°06'0 0.0
2013-Dec-04 05:33N 26°07' W 080°06'0 0.0
2013-Dec-04 04:33N 26°07' W 080°06'0 0.0
2013-Dec-04 03:33N 26°07' W 080°06'0 0.0
2013-Dec-04 02:24N 26°07' W 080°06'0 0.0
2013-Dec-04 01:27N 26°07' W 080°06'0 0.0
2013-Dec-04 00:27N 26°07' W 080°06'0 0.0
2013-Dec-03 23:27N 26°07' W 080°06'0 0.0
2013-Dec-03 22:27N 26°07' W 080°06'0 0.0
2013-Dec-03 21:27N 26°07' W 080°06'0 0.0
2013-Dec-03 20:33N 26°07' W 080°06'0 0.0
2013-Dec-03 19:33N 26°07' W 080°06'2 2.3
2013-Dec-03 18:33N 26°05' W 080°05'9 9.3
2013-Dec-03 17:33N 25°56' W 080°04'9 8.7
2013-Dec-03 16:33N 25°47' W 080°06'6 5.6
2013-Dec-03 15:33N 25°44' W 080°11'2 0.1
2013-Dec-02 20:18N 25°42' W 080°11'4 5.4
2013-Dec-02 19:33N 25°39' W 080°08'  

Dump ship's entire track history

sailing weather and tide predictions

Satauria — WDD6207 — position and weather